Time;durP1;ratioP1;P1;durP2;ratioP2;P2;SDS_P1;SDS_P2;PMS_P1;PMS_P2;Temp;Humidity;BMP_temperature;BMP_pressure;BME280_temperature;BME280_humidity;BME280_pressure;Samples;Min_cycle;Max_cycle;Signal;HPM_P1;HPM_P2
2021/10/06 00:01:32;;;;;;;8.63;1.70;;;11.90;99.90;;;;;;5064486;28;20639;-73
2021/10/06 00:03:59;;;;;;;19.40;2.13;;;11.90;99.90;;;;;;5060582;28;20640;-73
2021/10/06 00:06:25;;;;;;;11.00;1.98;;;11.90;99.90;;;;;;5063658;28;20178;-76
2021/10/06 00:08:51;;;;;;;12.30;1.92;;;11.90;99.90;;;;;;5061837;28;20259;-74
2021/10/06 00:11:16;;;;;;;14.57;1.45;;;11.90;99.90;;;;;;5062600;28;20175;-74
2021/10/06 00:13:42;;;;;;;15.98;1.67;;;11.90;99.90;;;;;;5060908;28;20186;-74
2021/10/06 00:16:10;;;;;;;9.85;1.52;;;11.90;99.90;;;;;;5060041;28;20282;-71
2021/10/06 00:18:37;;;;;;;18.85;2.67;;;11.90;99.90;;;;;;5062094;28;20179;-73
2021/10/06 00:21:03;;;;;;;18.05;2.28;;;11.90;99.90;;;;;;5059019;28;20210;-72
2021/10/06 00:23:31;;;;;;;9.00;1.70;;;11.90;99.90;;;;;;5045990;28;20206;-72
2021/10/06 00:25:56;;;;;;;9.40;1.67;;;11.80;99.90;;;;;;5060870;28;20190;-72
2021/10/06 00:28:22;;;;;;;13.38;1.83;;;11.80;99.90;;;;;;5060286;28;20190;-72
2021/10/06 00:30:47;;;;;;;9.30;1.73;;;11.80;99.90;;;;;;5043306;28;20178;-72
2021/10/06 00:33:13;;;;;;;11.38;1.55;;;11.80;99.90;;;;;;5062954;28;20266;-72
2021/10/06 00:35:39;;;;;;;8.88;1.40;;;11.70;99.90;;;;;;5066563;28;20643;-73
2021/10/06 00:38:04;;;;;;;10.80;1.48;;;11.70;99.90;;;;;;5062996;28;20977;-73
2021/10/06 00:40:30;;;;;;;6.43;1.10;;;11.70;99.90;;;;;;5048283;28;20236;-73
2021/10/06 00:42:56;;;;;;;15.60;1.70;;;11.70;99.90;;;;;;5063821;28;21063;-72
2021/10/06 00:45:22;;;;;;;11.98;1.67;;;11.70;99.90;;;;;;5063201;28;20210;-73
2021/10/06 00:47:47;;;;;;;8.60;1.50;;;11.60;99.90;;;;;;5066053;28;20232;-72
2021/10/06 00:50:13;;;;;;;17.75;1.85;;;11.60;99.90;;;;;;5047082;28;20178;-73
2021/10/06 00:52:39;;;;;;;12.15;1.83;;;11.60;99.90;;;;;;5062970;28;20616;-75
2021/10/06 00:55:05;;;;;;;11.15;1.50;;;11.60;99.90;;;;;;5065330;28;21012;-73
2021/10/06 00:57:30;;;;;;;13.63;1.60;;;11.70;99.90;;;;;;5060803;28;20194;-74
2021/10/06 00:59:56;;;;;;;8.43;1.10;;;11.70;99.90;;;;;;5046930;28;20202;-74
2021/10/06 01:02:22;;;;;;;10.18;1.42;;;11.70;99.90;;;;;;5048930;28;20226;-74
2021/10/06 01:04:48;;;;;;;14.88;1.30;;;11.70;99.90;;;;;;5064400;28;20242;-73
2021/10/06 01:07:13;;;;;;;9.55;1.45;;;11.60;99.90;;;;;;5064750;28;20207;-74
2021/10/06 01:09:40;;;;;;;8.40;1.23;;;11.60;99.90;;;;;;5045224;28;20190;-73
2021/10/06 01:12:06;;;;;;;13.38;1.40;;;11.60;99.90;;;;;;5065618;28;20274;-73
2021/10/06 01:14:32;;;;;;;10.57;1.23;;;11.50;99.90;;;;;;5079319;28;20273;-72
2021/10/06 01:16:58;;;;;;;13.75;1.63;;;11.50;99.90;;;;;;5063721;28;20199;-73
2021/10/06 01:19:28;;;;;;;6.88;1.20;;;11.50;99.90;;;;;;5065199;28;20187;-73
2021/10/06 01:21:56;;;;;;;12.15;1.38;;;11.50;99.90;;;;;;5058628;28;20187;-73
2021/10/06 01:24:23;;;;;;;12.38;1.10;;;11.50;99.90;;;;;;5063843;28;20218;-74
2021/10/06 01:26:49;;;;;;;7.47;1.23;;;11.40;99.90;;;;;;5063622;28;20191;-73
2021/10/06 01:29:15;;;;;;;6.90;1.02;;;11.40;99.90;;;;;;5046555;28;20289;-73
2021/10/06 01:31:43;;;;;;;9.23;1.00;;;11.40;99.90;;;;;;5063537;28;21129;-74
2021/10/06 01:34:09;;;;;;;5.13;0.60;;;11.40;99.90;;;;;;5061042;28;20194;-74
2021/10/06 01:36:36;;;;;;;6.10;0.80;;;11.40;99.90;;;;;;5079055;28;20721;-73
2021/10/06 01:39:06;;;;;;;3.28;0.73;;;11.40;99.90;;;;;;5059402;28;20198;-74
2021/10/06 01:41:33;;;;;;;7.03;1.15;;;11.30;99.90;;;;;;5064677;28;20193;-73
2021/10/06 01:44:00;;;;;;;8.68;1.45;;;11.30;99.90;;;;;;5043503;28;20263;-71
2021/10/06 01:46:26;;;;;;;9.85;1.30;;;11.30;99.90;;;;;;5046095;28;20191;-72
2021/10/06 01:48:51;;;;;;;7.18;1.08;;;11.30;99.90;;;;;;5061025;28;20197;-72
2021/10/06 01:51:17;;;;;;;12.50;1.20;;;11.30;99.90;;;;;;5044749;28;20636;-74
2021/10/06 01:53:43;;;;;;;9.43;1.02;;;11.30;99.90;;;;;;5064082;28;20191;-74
2021/10/06 01:56:09;;;;;;;8.00;0.90;;;11.30;99.90;;;;;;5059374;28;20219;-73
2021/10/06 01:58:35;;;;;;;6.22;1.08;;;11.30;99.90;;;;;;5046320;28;20192;-74
2021/10/06 02:01:01;;;;;;;8.43;0.90;;;11.30;99.90;;;;;;5063053;28;20647;-73
2021/10/06 02:03:27;;;;;;;8.27;1.10;;;11.30;99.90;;;;;;5061543;28;20222;-73
2021/10/06 02:05:52;;;;;;;9.52;1.42;;;11.40;99.90;;;;;;5045835;28;20650;-72
2021/10/06 02:08:19;;;;;;;14.20;1.23;;;11.40;99.90;;;;;;5062019;28;20171;-73
2021/10/06 02:10:45;;;;;;;10.48;1.30;;;11.40;99.90;;;;;;5063995;28;20187;-74
2021/10/06 02:13:11;;;;;;;12.65;1.27;;;11.40;99.90;;;;;;5060117;28;20186;-73
2021/10/06 02:15:37;;;;;;;10.23;1.33;;;11.40;99.90;;;;;;5063913;28;20689;-73
2021/10/06 02:18:03;;;;;;;5.10;1.08;;;11.40;99.90;;;;;;5061047;28;20176;-73
2021/10/06 02:20:29;;;;;;;16.20;1.45;;;11.40;99.90;;;;;;5061971;28;20298;-74
2021/10/06 02:22:55;;;;;;;10.45;1.20;;;11.40;99.90;;;;;;5062868;28;20194;-73
2021/10/06 02:25:21;;;;;;;8.07;1.40;;;11.40;99.90;;;;;;5042959;28;20217;-73
2021/10/06 02:27:47;;;;;;;6.32;1.17;;;11.40;99.90;;;;;;5044617;28;20195;-74
2021/10/06 02:30:13;;;;;;;10.63;1.30;;;11.40;99.90;;;;;;5045340;28;20190;-73
2021/10/06 02:32:39;;;;;;;12.18;1.10;;;11.40;99.90;;;;;;5059270;28;20550;-74
2021/10/06 02:35:06;;;;;;;11.25;1.48;;;11.40;99.90;;;;;;5064175;28;20182;-73
2021/10/06 02:37:32;;;;;;;10.13;1.48;;;11.30;99.90;;;;;;5059750;28;20220;-73
2021/10/06 02:39:58;;;;;;;14.52;1.30;;;11.30;99.90;;;;;;5044393;28;20252;-75
2021/10/06 02:42:23;;;;;;;8.93;1.30;;;11.30;99.90;;;;;;5062482;28;20194;-72
2021/10/06 02:44:49;;;;;;;9.20;1.10;;;11.30;99.90;;;;;;5043263;28;20671;-72
2021/10/06 02:47:15;;;;;;;8.70;1.08;;;11.30;99.90;;;;;;5079976;28;20209;-74
2021/10/06 02:49:40;;;;;;;9.43;1.30;;;11.30;99.90;;;;;;5065022;28;20190;-72
2021/10/06 02:52:06;;;;;;;12.05;1.25;;;11.30;99.90;;;;;;5066399;28;20651;-72
2021/10/06 02:54:32;;;;;;;9.75;1.33;;;11.30;99.90;;;;;;5064328;28;20195;-73
2021/10/06 02:57:01;;;;;;;9.95;1.50;;;11.30;99.90;;;;;;5046328;28;20569;-73
2021/10/06 02:59:28;;;;;;;12.57;1.38;;;11.30;99.90;;;;;;5063548;28;20190;-72
2021/10/06 03:01:54;;;;;;;15.60;1.80;;;11.30;99.90;;;;;;5044907;28;20237;-74
2021/10/06 03:04:20;;;;;;;15.27;1.75;;;11.30;99.90;;;;;;5080701;28;20202;-73
2021/10/06 03:06:45;;;;;;;20.52;2.00;;;11.20;99.90;;;;;;5044318;28;20183;-73
2021/10/06 03:09:11;;;;;;;17.38;1.65;;;11.20;99.90;;;;;;5062092;28;20194;-73
2021/10/06 03:11:37;;;;;;;23.00;1.80;;;11.20;99.90;;;;;;5064971;28;20608;-72
2021/10/06 03:14:03;;;;;;;17.35;1.77;;;11.20;99.90;;;;;;5063877;28;20193;-73
2021/10/06 03:16:29;;;;;;;16.30;1.55;;;11.20;99.90;;;;;;5061443;28;20191;-72
2021/10/06 03:18:54;;;;;;;19.45;1.83;;;11.20;99.90;;;;;;5057961;28;20556;-72
2021/10/06 03:21:20;;;;;;;18.98;1.73;;;11.20;99.90;;;;;;5038851;28;20715;-72
2021/10/06 03:23:46;;;;;;;13.60;1.77;;;11.20;99.90;;;;;;5044169;28;20218;-73
2021/10/06 03:26:11;;;;;;;19.80;1.58;;;11.20;99.90;;;;;;5044705;28;20191;-72
2021/10/06 03:28:37;;;;;;;19.20;2.15;;;11.20;99.90;;;;;;5064143;28;20669;-72
2021/10/06 03:31:03;;;;;;;20.23;1.63;;;11.20;99.90;;;;;;5046332;28;20179;-72
2021/10/06 03:33:29;;;;;;;20.48;2.63;;;11.20;99.90;;;;;;5063702;28;20902;-74
2021/10/06 03:35:54;;;;;;;15.93;1.55;;;11.10;99.90;;;;;;5064862;28;20190;-73
2021/10/06 03:38:20;;;;;;;14.65;1.27;;;11.10;99.90;;;;;;5060555;28;20194;-72
2021/10/06 03:40:46;;;;;;;13.57;1.48;;;11.10;99.90;;;;;;5046824;28;20198;-71
2021/10/06 03:43:11;;;;;;;14.73;1.38;;;11.10;99.90;;;;;;5062178;28;20206;-73
2021/10/06 03:45:37;;;;;;;15.40;1.45;;;11.00;99.90;;;;;;5045057;28;20202;-71
2021/10/06 03:48:03;;;;;;;12.93;1.50;;;11.00;99.90;;;;;;5044514;28;20661;-73
2021/10/06 03:50:29;;;;;;;10.00;1.15;;;10.90;99.90;;;;;;5061655;28;20290;-73
2021/10/06 03:52:55;;;;;;;14.68;1.45;;;10.90;99.90;;;;;;5064614;28;20714;-73
2021/10/06 03:55:20;;;;;;;15.90;1.52;;;10.90;99.90;;;;;;5046427;28;20200;-73
2021/10/06 03:57:46;;;;;;;16.88;1.70;;;10.90;99.90;;;;;;5058551;28;20218;-72
2021/10/06 04:00:12;;;;;;;15.85;1.75;;;11.00;99.90;;;;;;5063170;28;20669;-74
2021/10/06 04:02:38;;;;;;;12.05;1.50;;;11.00;99.90;;;;;;5062756;28;20264;-74
2021/10/06 04:05:06;;;;;;;17.30;1.83;;;11.00;99.90;;;;;;5061624;28;20737;-72
2021/10/06 04:07:32;;;;;;;14.35;1.58;;;11.00;99.90;;;;;;5063087;28;20187;-71
2021/10/06 04:09:58;;;;;;;14.82;1.88;;;11.10;99.90;;;;;;5062623;28;20182;-72
2021/10/06 04:12:23;;;;;;;16.48;1.45;;;11.10;99.90;;;;;;5065198;28;20178;-72
2021/10/06 04:14:49;;;;;;;9.70;1.30;;;11.10;99.90;;;;;;5062827;28;20195;-73
2021/10/06 04:17:14;;;;;;;15.43;1.73;;;11.10;99.90;;;;;;5045705;28;20182;-73
2021/10/06 04:19:40;;;;;;;10.57;1.38;;;11.10;99.90;;;;;;5056911;28;20292;-75
2021/10/06 04:22:06;;;;;;;11.52;1.48;;;11.10;99.90;;;;;;5047686;28;20977;-73
2021/10/06 04:24:31;;;;;;;24.65;1.67;;;11.00;99.90;;;;;;5055424;28;20298;-73
2021/10/06 04:26:57;;;;;;;20.33;1.33;;;11.00;99.90;;;;;;5055584;28;20668;-74
2021/10/06 04:29:23;;;;;;;15.73;1.88;;;11.00;99.90;;;;;;5057788;28;20735;-73
2021/10/06 04:31:48;;;;;;;12.98;1.63;;;11.10;99.90;;;;;;5054762;28;20655;-73
2021/10/06 04:34:14;;;;;;;13.85;1.48;;;11.00;99.90;;;;;;5059916;28;20186;-73
2021/10/06 04:36:41;;;;;;;12.90;1.40;;;11.10;99.90;;;;;;5063798;28;20190;-71
2021/10/06 04:39:07;;;;;;;11.85;1.60;;;11.10;99.90;;;;;;5062121;28;20195;-73
2021/10/06 04:41:33;;;;;;;12.18;1.50;;;11.10;99.90;;;;;;5062985;28;20186;-72
2021/10/06 04:44:01;;;;;;;14.63;1.58;;;11.10;99.90;;;;;;5059781;28;20242;-73
2021/10/06 04:46:28;;;;;;;10.20;1.60;;;11.10;99.90;;;;;;5058046;28;20306;-74
2021/10/06 04:48:53;;;;;;;11.50;1.55;;;11.10;99.90;;;;;;5046680;28;20218;-72
2021/10/06 04:51:19;;;;;;;11.93;1.40;;;11.10;99.90;;;;;;5060497;28;20195;-74
2021/10/06 04:53:44;;;;;;;9.50;1.30;;;11.10;99.90;;;;;;5064920;28;20179;-71
2021/10/06 04:56:10;;;;;;;28.40;2.10;;;11.10;99.90;;;;;;5040135;28;20186;-73
2021/10/06 04:58:36;;;;;;;9.02;2.85;;;11.20;99.90;;;;;;5065425;28;20187;-72
2021/10/06 05:01:02;;;;;;;17.98;1.83;;;11.20;99.90;;;;;;5057884;28;20194;-73
2021/10/06 05:03:27;;;;;;;6.50;1.60;;;11.10;99.90;;;;;;5064098;28;20362;-71
2021/10/06 05:05:53;;;;;;;11.50;2.05;;;11.10;99.90;;;;;;5061227;28;20262;-73
2021/10/06 05:08:19;;;;;;;12.57;1.90;;;11.10;99.90;;;;;;5059423;28;20193;-72
2021/10/06 05:10:44;;;;;;;30.60;3.03;;;11.10;99.90;;;;;;5062539;28;20325;-74
2021/10/06 05:13:10;;;;;;;32.92;3.83;;;11.20;99.90;;;;;;5062214;28;20193;-72
2021/10/06 05:15:36;;;;;;;20.48;2.97;;;11.20;99.90;;;;;;5062126;28;20232;-73
2021/10/06 05:18:02;;;;;;;31.67;5.07;;;11.30;99.90;;;;;;5039111;28;20654;-72
2021/10/06 05:20:28;;;;;;;24.67;3.40;;;11.30;99.90;;;;;;5059118;28;20181;-72
2021/10/06 05:22:53;;;;;;;27.90;3.70;;;11.40;99.90;;;;;;5065475;28;20193;-74
2021/10/06 05:25:23;;;;;;;28.40;3.97;;;11.40;99.90;;;;;;5065453;28;20286;-73
2021/10/06 05:27:49;;;;;;;28.85;4.00;;;11.40;99.90;;;;;;5064300;28;20183;-73
2021/10/06 05:30:16;;;;;;;31.02;3.97;;;11.50;99.90;;;;;;5047631;28;20281;-73
2021/10/06 05:32:42;;;;;;;33.03;3.47;;;11.50;99.90;;;;;;5044904;28;20186;-71
2021/10/06 05:35:09;;;;;;;25.02;3.22;;;11.50;99.90;;;;;;5048323;28;20763;-73
2021/10/06 05:37:36;;;;;;;22.90;3.30;;;11.60;99.90;;;;;;5055313;28;20190;-72
2021/10/06 05:40:03;;;;;;;26.90;3.13;;;11.60;99.90;;;;;;5042512;28;20187;-72
2021/10/06 05:42:29;;;;;;;23.02;3.10;;;11.60;99.90;;;;;;5049022;28;20194;-72
2021/10/06 05:44:54;;;;;;;22.02;2.95;;;11.60;99.90;;;;;;5046383;28;20198;-72
2021/10/06 05:47:20;;;;;;;25.83;3.42;;;11.70;99.90;;;;;;5064489;28;20187;-74
2021/10/06 05:49:46;;;;;;;21.27;3.63;;;11.70;99.90;;;;;;5049563;28;20178;-74
2021/10/06 05:52:12;;;;;;;31.70;3.42;;;11.70;99.90;;;;;;5046980;28;20602;-73
2021/10/06 05:54:38;;;;;;;29.23;3.35;;;11.70;99.90;;;;;;5065223;28;20269;-73
2021/10/06 05:57:03;;;;;;;33.55;3.58;;;11.70;99.90;;;;;;5041973;28;20187;-72
2021/10/06 05:59:31;;;;;;;35.13;3.42;;;11.60;99.90;;;;;;5060710;28;20543;-72
2021/10/06 06:01:57;;;;;;;35.67;3.15;;;11.70;99.90;;;;;;5057609;28;20627;-72
2021/10/06 06:04:25;;;;;;;37.50;2.70;;;11.70;99.90;;;;;;5041929;28;20211;-73
2021/10/06 06:06:50;;;;;;;27.77;2.40;;;11.70;99.90;;;;;;5041881;28;20319;-73
2021/10/06 06:09:19;;;;;;;23.15;2.50;;;11.70;99.90;;;;;;5062578;28;20195;-72
2021/10/06 06:11:45;;;;;;;33.40;3.00;;;11.70;99.90;;;;;;5044417;28;20199;-73
2021/10/06 06:14:10;;;;;;;24.35;2.83;;;11.70;99.90;;;;;;5064339;28;20182;-75
2021/10/06 06:16:36;;;;;;;19.00;2.20;;;11.70;99.90;;;;;;5045292;28;20256;-72
2021/10/06 06:19:02;;;;;;;27.00;3.15;;;11.80;99.90;;;;;;5044611;28;20296;-73
2021/10/06 06:21:27;;;;;;;29.40;2.88;;;11.80;99.90;;;;;;5044652;28;20211;-73
2021/10/06 06:23:53;;;;;;;27.70;2.97;;;11.80;99.90;;;;;;5047948;28;20294;-73
2021/10/06 06:26:18;;;;;;;48.88;4.10;;;11.80;99.90;;;;;;5064893;28;20577;-73
2021/10/06 06:28:44;;;;;;;13.02;2.28;;;11.90;99.90;;;;;;5062448;28;20186;-71
2021/10/06 06:31:10;;;;;;;17.98;2.22;;;11.90;99.90;;;;;;5065497;28;20183;-74
2021/10/06 06:33:36;;;;;;;23.60;3.05;;;11.90;99.90;;;;;;5064014;28;20194;-71
2021/10/06 06:36:04;;;;;;;20.60;2.60;;;11.80;99.90;;;;;;5046639;28;20252;-73
2021/10/06 06:38:30;;;;;;;26.95;3.13;;;11.80;99.90;;;;;;5062505;28;20195;-72
2021/10/06 06:40:56;;;;;;;28.95;2.85;;;11.80;99.90;;;;;;5064487;28;20197;-71
2021/10/06 06:43:22;;;;;;;21.88;2.80;;;11.80;99.90;;;;;;5047176;28;20210;-73
2021/10/06 06:45:48;;;;;;;18.98;2.40;;;11.80;99.90;;;;;;5044740;28;20699;-73
2021/10/06 06:48:13;;;;;;;19.65;2.72;;;11.90;99.90;;;;;;5064741;28;20270;-72
2021/10/06 06:50:39;;;;;;;24.55;2.92;;;11.90;99.90;;;;;;5058803;28;20217;-71
2021/10/06 06:53:05;;;;;;;22.83;2.80;;;11.90;99.90;;;;;;5062355;28;20186;-73
2021/10/06 06:55:31;;;;;;;35.80;3.38;;;11.90;99.90;;;;;;5063629;28;20186;-73
2021/10/06 06:57:56;;;;;;;30.00;3.65;;;11.90;99.90;;;;;;5045386;28;20259;-74
2021/10/06 07:00:22;;;;;;;24.70;3.13;;;11.90;99.90;;;;;;5046651;28;20267;-73
2021/10/06 07:02:47;;;;;;;27.58;3.10;;;11.90;99.90;;;;;;5061219;28;20237;-73
2021/10/06 07:05:14;;;;;;;18.23;2.58;;;11.90;99.90;;;;;;5046213;28;20238;-73
2021/10/06 07:07:39;;;;;;;21.77;3.13;;;12.00;99.90;;;;;;5064480;28;20189;-72
2021/10/06 07:10:05;;;;;;;25.15;3.63;;;12.00;99.90;;;;;;5064818;28;20175;-72
2021/10/06 07:12:31;;;;;;;13.05;2.40;;;12.00;99.90;;;;;;5081053;28;20182;-74
2021/10/06 07:14:57;;;;;;;15.18;2.35;;;12.00;99.90;;;;;;5063206;28;20281;-74
2021/10/06 07:17:23;;;;;;;14.02;2.70;;;12.00;99.90;;;;;;5045919;28;20186;-73
2021/10/06 07:19:49;;;;;;;18.23;3.05;;;12.10;99.90;;;;;;5040454;28;20193;-75
2021/10/06 07:22:18;;;;;;;28.27;2.90;;;12.10;99.90;;;;;;5062459;28;20190;-74
2021/10/06 07:24:45;;;;;;;23.35;2.90;;;12.10;99.90;;;;;;5049322;28;20234;-78
2021/10/06 07:27:11;;;;;;;20.98;2.97;;;12.20;99.90;;;;;;5060078;28;20191;-74
2021/10/06 07:29:40;;;;;;;23.63;2.90;;;12.20;99.90;;;;;;5065277;28;20191;-77
2021/10/06 07:32:06;;;;;;;15.13;3.03;;;12.30;99.90;;;;;;5045822;28;20182;-73
2021/10/06 07:34:32;;;;;;;13.82;2.33;;;12.30;99.90;;;;;;5065147;28;20588;-76
2021/10/06 07:36:58;;;;;;;17.52;2.70;;;12.30;99.90;;;;;;5062666;28;20193;-74
2021/10/06 07:39:23;;;;;;;12.50;2.60;;;12.30;99.90;;;;;;5065073;28;20190;-74
2021/10/06 07:41:49;;;;;;;10.93;2.15;;;12.40;99.90;;;;;;5061678;28;20194;-75
2021/10/06 07:44:16;;;;;;;12.10;2.53;;;12.40;99.90;;;;;;5045372;28;20210;-74
2021/10/06 07:46:42;;;;;;;12.52;2.50;;;12.40;99.90;;;;;;5062753;28;20209;-72
2021/10/06 07:49:09;;;;;;;13.75;2.25;;;12.50;99.90;;;;;;5059457;28;20187;-73
2021/10/06 07:51:35;;;;;;;17.55;2.80;;;12.60;99.90;;;;;;5065100;28;20271;-74
2021/10/06 07:54:04;;;;;;;13.38;2.22;;;12.70;99.90;;;;;;5057109;28;20186;-75
2021/10/06 07:56:29;;;;;;;11.40;2.38;;;12.70;99.90;;;;;;5064376;28;20186;-74
2021/10/06 07:58:56;;;;;;;13.80;2.42;;;12.70;99.90;;;;;;5062062;28;20201;-73
2021/10/06 08:01:21;;;;;;;18.23;2.55;;;12.80;99.90;;;;;;5064089;28;20218;-74
2021/10/06 08:03:47;;;;;;;13.75;2.85;;;13.00;99.90;;;;;;5063487;28;20550;-76
2021/10/06 08:06:13;;;;;;;14.55;1.98;;;13.20;99.90;;;;;;5044647;28;20187;-75
2021/10/06 08:08:39;;;;;;;12.45;1.88;;;13.40;99.90;;;;;;5044475;28;20210;-72
2021/10/06 08:11:05;;;;;;;7.43;1.90;;;13.50;99.90;;;;;;5063239;28;20218;-75
2021/10/06 08:13:31;;;;;;;13.38;1.63;;;13.60;99.90;;;;;;5062433;28;20188;-74
2021/10/06 08:15:57;;;;;;;11.75;1.85;;;13.80;99.90;;;;;;5065245;28;20194;-73
2021/10/06 08:18:23;;;;;;;10.60;1.23;;;14.60;99.90;;;;;;5063427;28;20190;-74
2021/10/06 08:20:51;;;;;;;8.73;1.30;;;15.30;99.90;;;;;;5057077;28;20703;-74
2021/10/06 08:23:17;;;;;;;4.97;1.30;;;15.90;99.90;;;;;;5045144;28;20270;-75
2021/10/06 08:25:46;;;;;;;11.85;1.60;;;16.30;99.90;;;;;;5045229;28;20644;-73
2021/10/06 08:28:13;;;;;;;11.30;1.10;;;16.30;99.90;;;;;;5063340;28;20186;-74
2021/10/06 08:30:39;;;;;;;15.43;1.10;;;16.10;99.90;;;;;;5064775;28;20193;-73
2021/10/06 08:33:07;;;;;;;5.70;1.08;;;15.80;99.90;;;;;;5063915;28;20183;-74
2021/10/06 08:35:33;;;;;;;9.95;1.80;;;15.50;99.90;;;;;;5062628;28;20210;-74
2021/10/06 08:38:01;;;;;;;6.63;1.42;;;15.70;99.90;;;;;;5045264;28;20185;-74
2021/10/06 08:40:27;;;;;;;9.02;1.50;;;16.40;99.90;;;;;;5044174;28;20415;-74
2021/10/06 08:42:53;;;;;;;8.37;1.53;;;19.10;99.90;;;;;;5061781;28;20498;-74
2021/10/06 08:45:19;;;;;;;9.98;1.30;;;20.80;98.10;;;;;;5061256;28;20214;-75
2021/10/06 08:47:46;;;;;;;10.25;1.38;;;20.00;99.90;;;;;;5062096;28;20698;-75
2021/10/06 08:50:15;;;;;;;8.15;1.30;;;19.10;99.90;;;;;;5076921;28;20186;-75
2021/10/06 08:52:46;;;;;;;6.03;1.20;;;18.20;99.90;;;;;;5062999;28;20535;-74
2021/10/06 08:55:11;;;;;;;4.22;1.00;;;18.00;99.90;;;;;;5061302;28;20198;-73
2021/10/06 08:57:37;;;;;;;4.47;1.10;;;17.10;99.90;;;;;;5083751;28;20191;-74
2021/10/06 09:00:05;;;;;;;9.93;1.60;;;16.40;99.90;;;;;;5076651;28;20209;-73
2021/10/06 09:02:42;;;;;;;13.48;1.80;;;15.90;99.90;;;;;;5049927;28;20309;-73
2021/10/06 09:05:10;;;;;;;18.33;1.90;;;15.50;99.90;;;;;;5063909;28;20210;-75
2021/10/06 09:08:01;;;;;;;14.07;1.90;;;15.20;99.90;;;;;;5068850;28;20206;-74
2021/10/06 09:10:29;;;;;;;19.13;2.33;;;15.20;99.90;;;;;;5073884;28;20182;-73
2021/10/06 09:13:01;;;;;;;17.23;2.33;;;15.90;99.90;;;;;;5065131;28;20303;-74
2021/10/06 09:15:39;;;;;;;14.27;1.75;;;16.40;99.90;;;;;;5067526;28;20198;-73
2021/10/06 09:18:05;;;;;;;13.45;1.65;;;16.70;99.90;;;;;;5062137;28;20189;-74
2021/10/06 09:20:35;;;;;;;11.48;1.50;;;17.30;99.90;;;;;;5067284;28;20277;-76
2021/10/06 09:23:07;;;;;;;10.93;1.92;;;18.30;99.90;;;;;;5049191;28;20419;-76
2021/10/06 09:25:59;;;;;;;13.10;2.13;;;20.60;98.00;;;;;;5064359;28;20494;-75
2021/10/06 09:28:35;;;;;;;10.35;1.23;;;20.90;95.00;;;;;;5066734;28;20660;-76
2021/10/06 09:31:06;;;;;;;11.65;1.60;;;19.90;98.00;;;;;;5065137;28;20277;-76
2021/10/06 09:33:41;;;;;;;9.20;1.65;;;19.70;99.90;;;;;;5064037;28;20648;-71
2021/10/06 09:36:16;;;;;;;6.45;0.98;;;20.40;99.90;;;;;;5065311;28;20666;-74
2021/10/06 09:38:53;;;;;;;4.43;0.95;;;21.30;99.90;;;;;;5033048;28;20281;-72
2021/10/06 09:41:32;;;;;;;7.72;1.30;;;22.10;99.00;;;;;;5032613;28;20335;-71
2021/10/06 09:44:13;;;;;;;6.35;1.48;;;23.00;97.80;;;;;;5065098;28;20212;-72
2021/10/06 09:46:58;;;;;;;8.13;1.40;;;23.50;94.80;;;;;;5062571;28;20206;-72
2021/10/06 09:49:34;;;;;;;4.90;0.95;;;23.30;93.10;;;;;;5065535;28;20186;-73
2021/10/06 09:52:21;;;;;;;5.32;1.30;;;23.20;93.00;;;;;;5063900;28;20190;-72
2021/10/06 09:54:51;;;;;;;14.27;1.20;;;23.50;92.50;;;;;;5063125;28;20199;-73
2021/10/06 09:57:31;;;;;;;7.88;1.30;;;23.60;91.10;;;;;;5080491;28;20400;-72
2021/10/06 10:00:03;;;;;;;5.95;1.17;;;24.70;74.30;;;;;;5067539;28;20209;-75
2021/10/06 10:02:37;;;;;;;8.20;1.50;;;23.60;79.10;;;;;;5061715;28;20448;-75
2021/10/06 10:05:05;;;;;;;6.85;1.33;;;23.30;75.40;;;;;;5062777;28;20721;-74
2021/10/06 10:07:31;;;;;;;8.23;1.60;;;22.20;80.70;;;;;;5063641;28;20186;-77
2021/10/06 10:09:57;;;;;;;6.40;1.10;;;21.30;85.30;;;;;;5046924;28;20202;-75
2021/10/06 10:12:26;;;;;;;6.57;1.05;;;20.50;89.40;;;;;;5049484;28;20274;-72
2021/10/06 10:14:52;;;;;;;5.63;1.15;;;19.80;90.50;;;;;;5063718;28;20197;-77
2021/10/06 10:17:19;;;;;;;6.57;1.10;;;19.20;91.70;;;;;;5065909;28;20263;-75
2021/10/06 10:19:51;;;;;;;10.73;2.08;;;18.70;92.80;;;;;;5062576;28;20532;-73
2021/10/06 10:22:20;;;;;;;9.82;1.80;;;18.40;94.20;;;;;;5064474;28;20254;-75
2021/10/06 10:24:47;;;;;;;11.32;1.42;;;18.20;95.50;;;;;;5065839;28;20212;-77
2021/10/06 10:27:15;;;;;;;9.45;1.38;;;18.20;96.20;;;;;;5064957;28;20673;-77
2021/10/06 10:29:50;;;;;;;17.58;1.70;;;18.20;96.70;;;;;;5066190;28;20193;-77
2021/10/06 10:32:17;;;;;;;9.30;1.65;;;18.10;97.20;;;;;;5081536;28;20741;-76
2021/10/06 10:34:59;;;;;;;9.73;1.90;;;18.30;98.50;;;;;;5066962;28;20202;-74
2021/10/06 10:38:02;;;;;;;10.52;1.88;;;18.90;99.60;;;;;;5060753;28;20666;-75
2021/10/06 10:40:31;;;;;;;8.60;1.83;;;19.40;99.30;;;;;;5057393;28;20328;-75
2021/10/06 10:43:12;;;;;;;12.02;2.00;;;19.80;99.30;;;;;;5061139;28;20191;-75
2021/10/06 10:45:59;;;;;;;9.50;1.50;;;20.00;98.90;;;;;;5064089;28;20194;-77
2021/10/06 10:48:31;;;;;;;12.30;1.92;;;20.40;98.90;;;;;;5063907;28;20189;-74
2021/10/06 10:50:57;;;;;;;12.10;1.45;;;20.70;98.20;;;;;;5065308;28;20194;-78
2021/10/06 10:53:42;;;;;;;8.32;1.48;;;20.80;97.20;;;;;;5062861;28;20210;-74
2021/10/06 10:56:10;;;;;;;8.43;1.30;;;21.10;97.00;;;;;;5058029;28;20286;-73
2021/10/06 10:58:43;;;;;;;9.75;1.70;;;21.50;96.30;;;;;;5062174;28;20407;-75
2021/10/06 11:01:14;;;;;;;9.35;1.30;;;23.60;87.70;;;;;;5060664;28;20636;-73
2021/10/06 11:04:09;;;;;;;9.35;1.83;;;23.70;90.00;;;;;;5058084;28;20415;-75
2021/10/06 11:06:36;;;;;;;6.53;1.35;;;25.60;73.70;;;;;;5063958;28;20547;-74
2021/10/06 11:09:22;;;;;;;8.27;1.50;;;26.50;66.80;;;;;;5042368;28;20504;-75
2021/10/06 11:11:47;;;;;;;11.82;1.45;;;27.10;64.50;;;;;;5060419;28;20404;-75
2021/10/06 11:14:20;;;;;;;9.02;1.50;;;27.50;60.10;;;;;;5063430;28;20406;-73
2021/10/06 11:17:05;;;;;;;6.82;1.33;;;27.70;61.50;;;;;;5044726;28;20191;-73
2021/10/06 11:19:48;;;;;;;10.05;1.50;;;26.80;66.90;;;;;;5045649;28;20195;-76
2021/10/06 11:22:23;;;;;;;9.27;1.50;;;26.50;70.30;;;;;;5061764;28;20209;-76
2021/10/06 11:25:01;;;;;;;8.32;1.90;;;26.50;70.50;;;;;;5047368;28;20656;-74
2021/10/06 11:27:42;;;;;;;10.00;1.80;;;26.30;70.60;;;;;;5063122;28;20400;-73
2021/10/06 11:30:11;;;;;;;10.52;1.50;;;27.60;58.90;;;;;;5065374;28;20197;-76
2021/10/06 11:32:46;;;;;;;;;;;26.70;63.70;;;;;;5076741;28;20020;-74
2021/10/06 11:35:12;;;;;;;9.80;1.40;;;25.80;67.90;;;;;;5062475;28;20408;-73
2021/10/06 11:37:38;;;;;;;9.20;1.40;;;26.00;66.20;;;;;;5043399;28;20186;-74
2021/10/06 11:40:09;;;;;;;8.68;1.10;;;25.20;69.30;;;;;;5063143;28;20191;-76
2021/10/06 11:42:35;;;;;;;6.75;1.40;;;24.80;71.60;;;;;;5077441;28;20391;-73
2021/10/06 11:45:01;;;;;;;9.83;1.63;;;26.30;66.00;;;;;;5062605;28;20475;-76
2021/10/06 11:47:26;;;;;;;7.57;1.35;;;27.30;60.50;;;;;;5064863;28;20244;-73
2021/10/06 11:49:52;;;;;;;9.70;1.60;;;26.50;65.60;;;;;;5078493;28;20191;-74
2021/10/06 11:52:19;;;;;;;7.45;1.20;;;25.60;69.50;;;;;;5046917;28;20178;-74
2021/10/06 11:54:46;;;;;;;8.13;1.83;;;24.80;71.30;;;;;;5076842;28;20403;-77
2021/10/06 11:57:17;;;;;;;8.30;1.63;;;25.00;71.80;;;;;;5059592;28;21098;-75
2021/10/06 11:59:46;;;;;;;11.23;1.60;;;25.30;70.30;;;;;;5060938;28;20541;-76
2021/10/06 12:02:13;;;;;;;11.65;1.63;;;26.00;68.00;;;;;;5061774;28;20505;-75
2021/10/06 12:04:42;;;;;;;14.07;1.70;;;26.70;66.90;;;;;;5062430;28;20473;-76
2021/10/06 12:07:16;;;;;;;9.65;1.30;;;27.30;64.40;;;;;;5062744;28;20183;-75
2021/10/06 12:09:48;;;;;;;10.70;1.60;;;26.80;66.70;;;;;;5063109;28;20454;-75
2021/10/06 12:12:25;;;;;;;10.40;1.42;;;27.70;59.40;;;;;;5059505;28;20739;-75
2021/10/06 12:15:03;;;;;;;6.38;1.15;;;28.10;58.50;;;;;;5060960;28;20403;-74
2021/10/06 12:17:38;;;;;;;4.47;0.93;;;27.70;58.80;;;;;;5043445;28;20190;-74
2021/10/06 12:20:12;;;;;;;24.70;1.35;;;26.50;62.80;;;;;;5063096;28;20526;-78
2021/10/06 12:22:43;;;;;;;;;;;25.40;66.20;;;;;;5049181;28;20035;-74
2021/10/06 12:25:21;;;;;;;4.82;1.13;;;24.40;68.90;;;;;;5059789;28;20207;-73
2021/10/06 12:27:50;;;;;;;7.07;1.30;;;23.70;71.20;;;;;;5061976;28;20416;-70
2021/10/06 12:30:17;;;;;;;9.18;1.52;;;23.90;71.00;;;;;;5060339;28;20892;-73
2021/10/06 12:32:48;;;;;;;11.18;1.75;;;24.20;72.70;;;;;;5045840;28;20403;-77
2021/10/06 12:35:16;;;;;;;8.98;1.40;;;24.80;72.50;;;;;;5061133;28;20685;-75
2021/10/06 12:38:01;;;;;;;6.78;1.13;;;24.70;74.50;;;;;;5064248;28;20189;-73
2021/10/06 12:40:39;;;;;;;13.07;1.63;;;24.50;75.30;;;;;;5059215;28;20198;-74
2021/10/06 12:43:14;;;;;;;11.00;1.83;;;24.20;76.50;;;;;;5063136;28;20591;-73
2021/10/06 12:46:07;;;;;;;10.07;1.48;;;23.80;77.10;;;;;;5078104;28;20187;-75